Marblemount, Washington
Current Conditions -  °F | °C
As of 12:15 AM on Saturday 25 Oct 2014 (Local Time) from KAWO Reporting Station
Overcast Overcast  
Wind Chill: 48°   Ceiling: 8500
Heat Index: 48°   Visibility: 10mi
Dew Point: 45°   Wind: 0mph
Humidity: 87%   Direction: NA
Pressure: 29.76"   Gusts: NA
Location:  48.53°N, 121.45°W
Report Text: KAWO 250715Z AUTO 00000KT 10SM FEW065 SCT070 OVC085 09/07 A2976 RMK AO1
Loading
Personal Weather Stations






























Interactive Weather Map
Tropical Storm Tracking
New forecast layout! Learn more

10-Day Weather Forecast

Advertisements
Track Severe Weather on mobile